Flight Track Log - Related Links

Times and Time Zones

All times are in EST time to prevent confusion due to time zone crossing. See the QFA1074 flight status page for this flight to view local times or setup timezone preferences in your user account.

Time Position Orientation Groundspeed Altitude Reporting Facility
EST Latitude Longitude Course Direction KTS MPH feet Rate Location/Type
Sun 09:01:39 PM -31.9363 115.9662 184° South 110 127  Level FlightAware ADS-B
Sun 09:02:30 PM -31.9719 115.9555 184° South 167 192 1,400 1,739 Climbing Aus ATC (RADAR)
Sun 09:02:48 PM -31.9883 115.9505 184° South 203 234 2,000 1,902 Climbing FlightAware ADS-B
Sun 09:03:11 PM -32.0101 115.9502 181° South 219 252 2,700 2,143 Climbing FlightAware ADS-B
Sun 09:03:30 PM -32.0268 115.9604 153° Southeast 224 258 3,500 1,867 Climbing FlightAware ADS-B
Sun 09:03:56 PM -32.0412 115.9909 119° Southeast 262 302 4,100 1,696 Climbing FlightAware ADS-B
Sun 09:04:16 PM -32.0485 116.0200 106° East 274 315 4,800 2,341 Climbing FlightAware ADS-B
Sun 09:04:37 PM -32.0555 116.0509 105° East 287 330 5,700 2,571 Climbing FlightAware ADS-B
Sun 09:05:05 PM -32.0647 116.0931 104° East 293 337 6,900 2,500 Climbing FlightAware ADS-B
Sun 09:05:25 PM -32.0718 116.1249 105° East 303 349 7,700 2,229 Climbing FlightAware ADS-B
Sun 09:05:40 PM -32.0770 116.1479 105° East 314 361 8,200 2,125 Climbing FlightAware ADS-B
Sun 09:06:13 PM -32.0848 116.2066 99° East 316 364 9,400 2,423 Climbing FlightAware ADS-B
Sun 09:06:32 PM -32.0740 116.2344 66° East 300 345 10,300 1,727 Climbing FlightAware ADS-B
Sun 09:07:19 PM -32.0265 116.2936 47° Northeast 335 386 11,300 1,793 Climbing FlightAware ADS-B
Sun 09:07:59 PM -31.9834 116.3480 47° Northeast 352 405 12,900 2,259 Climbing FlightAware ADS-B
Sun 09:08:44 PM -31.9311 116.4101 45° Northeast 367 422 14,500 2,060 Climbing FlightAware ADS-B
Sun 09:09:06 PM -31.8977 116.4331 30° Northeast 370 426 15,200 2,400 Climbing FlightAware ADS-B
Sun 09:09:54 PM -31.8226 116.4732 24° Northeast 372 428 17,300 2,489 Climbing FlightAware ADS-B
Sun 09:10:40 PM -31.7489 116.5128 25° Northeast 374 430 19,100 1,909 Climbing FlightAware ADS-B
Sun 09:11:22 PM -31.6788 116.5504 25° Northeast 396 456 20,100 1,600 Climbing FlightAware ADS-B
Sun 09:12:10 PM -31.5971 116.5943 25° Northeast 408 470 21,500 1,630 Climbing FlightAware ADS-B
Sun 09:12:43 PM -31.5384 116.6255 25° Northeast 418 481 22,300 1,636 Climbing Aus ATC (RADAR)
Sun 09:12:54 PM -31.5201 116.6354 25° Northeast 426 490 22,700 1,837 Climbing FlightAware ADS-B
Sun 09:13:32 PM -31.4511 116.6723 25° Northeast 427 491 23,800 1,744 Climbing FlightAware ADS-B
Sun 09:14:20 PM -31.3614 116.7202 25° Northeast 440 506 25,200 1,605 Climbing FlightAware ADS-B
Sun 09:14:58 PM -31.2908 116.7581 25° Northeast 439 505 26,100 1,600 Climbing Aus ATC (RADAR)
Sun 09:15:05 PM -31.2778 116.7646 25° Northeast 443 510 26,400 1,347 Climbing FlightAware ADS-B
Sun 09:15:47 PM -31.1971 116.8075 24° Northeast 448 516 27,200 1,063 Climbing FlightAware ADS-B
Sun 09:16:24 PM -31.1289 116.8439 24° Northeast 456 525 27,800 1,200 Climbing Aus ATC (RADAR)
Sun 09:16:32 PM -31.1111 116.8531 24° Northeast 461 531 28,100 1,286 Climbing FlightAware ADS-B
Sun 09:17:20 PM -31.0166 116.9030 24° Northeast 462 532 29,000 963 Climbing FlightAware ADS-B
Sun 09:17:53 PM -30.9520 116.9374 24° Northeast 469 540 29,400 1,171 Climbing Aus ATC (RADAR)
Sun 09:18:01 PM -30.9345 116.9462 24° Northeast 474 545 29,800 1,778 Climbing FlightAware ADS-B
Sun 09:18:47 PM -30.8438 116.9939 24° Northeast 463 533 31,000 1,379 Climbing FlightAware ADS-B
Sun 09:19:28 PM -30.7634 117.0361 24° Northeast 466 536 31,800 1,404 Climbing Aus ATC (RADAR)
Sun 09:19:34 PM -30.7512 117.0427 24° Northeast 460 529 32,100 1,560 Climbing FlightAware ADS-B
Sun 09:20:18 PM -30.6661 117.0873 24° Northeast 462 532 33,100 1,295 Climbing FlightAware ADS-B
Sun 09:21:02 PM -30.5784 117.1334 24° Northeast 459 528 34,000 1,121 Climbing FlightAware ADS-B
Sun 09:21:49 PM -30.4898 117.1802 24° Northeast 460 529 34,800 682 Climbing FlightAware ADS-B
Sun 09:22:30 PM -30.4094 117.2224 24° Northeast 461 531 35,000  Climbing FlightAware ADS-B
Sun 09:23:08 PM -30.3357 117.2599 24° Northeast 459 528 34,800  Descending Aus ATC (RADAR)
Sun 09:23:15 PM -30.3208 117.2684 24° Northeast 460 529 35,000 222 Climbing FlightAware ADS-B
Sun 09:24:02 PM -30.2311 117.3149 24° Northeast 461 531 35,000 -136 Level FlightAware ADS-B
Sun 09:24:43 PM -30.1520 117.3565 24° Northeast 459 528 34,800  Descending Aus ATC (RADAR)
Sun 09:24:46 PM -30.1449 117.3593 24° Northeast 460 529 35,000 171 Climbing FlightAware ADS-B
Sun 09:25:18 PM -30.0833 117.3907 24° Northeast 462 532 34,900  Descending Aus ATC (RADAR)
Sun 09:25:29 PM -30.0613 117.4024 24° Northeast 462 532 35,000 103 Climbing FlightAware ADS-B
Sun 09:26:16 PM -29.9686 117.4503 24° Northeast 457 526 35,000  Level FlightAware ADS-B
Sun 09:26:56 PM -29.8896 117.4911 24° Northeast 459 528 35,000  Level FlightAware ADS-B
Sun 09:27:43 PM -29.7967 117.5389 24° Northeast 459 528 35,000 -156 Level FlightAware ADS-B
Sun 09:28:13 PM -29.7403 117.5678 24° Northeast 466 536 34,800  Descending Aus ATC (RADAR)
Sun 09:28:30 PM -29.7045 117.5863 24° Northeast 458 527 35,000 203 Climbing FlightAware ADS-B
Sun 09:29:12 PM -29.6226 117.6283 24° Northeast 459 528 35,000 -78 Level FlightAware ADS-B
Sun 09:29:47 PM -29.5534 117.6632 24° Northeast 464 534 34,900  Descending Aus ATC (RADAR)
Sun 09:29:57 PM -29.5326 117.6743 24° Northeast 458 527 35,000 103 Climbing FlightAware ADS-B
Sun 09:30:45 PM -29.4388 117.7222 24° Northeast 459 528 35,000  Level FlightAware ADS-B
Sun 09:31:28 PM -29.3575 117.7636 24° Northeast 458 527 35,000  Level FlightAware ADS-B
Sun 09:32:11 PM -29.2689 117.8088 24° Northeast 459 528 35,000 -71 Level FlightAware ADS-B
Sun 09:32:52 PM -29.1883 117.8467 24° Northeast 464 534 34,900  Descending Aus ATC (RADAR)
Sun 09:32:58 PM -29.1775 117.8553 24° Northeast 462 532 35,000 122 Climbing FlightAware ADS-B
Sun 09:33:41 PM -29.0940 117.8978 24° Northeast 458 527 35,000  Level FlightAware ADS-B
Sun 09:34:26 PM -29.0071 117.9417 24° Northeast 455 524 35,000  Level FlightAware ADS-B
Sun 09:35:12 PM -28.9183 117.9865 24° Northeast 454 522 35,000  Level FlightAware ADS-B
Sun 09:35:54 PM -28.8398 118.0260 24° Northeast 454 522 35,000 -61 Level FlightAware ADS-B
Sun 09:36:51 PM -28.7254 118.0779 24° Northeast 450 518 34,900 -59 Descending Aus ATC (RADAR)
Sun 09:37:36 PM -28.6393 118.1210 24° Northeast 450 518 34,900  Level Aus ATC (RADAR)
Sun 09:38:02 PM -28.5914 118.1443 23° Northeast 450 518 34,900  Level Aus ATC (RADAR)
Sun 09:38:37 PM -28.5239 118.1765 23° Northeast 451 519 34,900  Level Aus ATC (RADAR)
Sun 09:39:41 PM -28.3995 118.2374 23° Northeast 449 517 34,900  Level Aus ATC (RADAR)
Sun 09:40:02 PM -28.3620 118.2575 25° Northeast 450 518 34,900  Level Aus ATC (RADAR)
Sun 09:40:31 PM -28.3057 118.2874 25° Northeast 451 519 34,900  Level Aus ATC (RADAR)
Sun 09:53:11 PM -26.8445 118.9363 201° Southwest 484 557 34,900  Level Aus ATC (RADAR)
Sun 09:57:20 PM -26.3691 119.1372 21° North 450 518 34,900  Level Aus ATC (RADAR)
Sun 09:57:54 PM -26.2997 119.1730 25° Northeast 460 529 34,900  Level Aus ATC (RADAR)
Sun 09:59:59 PM -26.0568 119.2779 21° North 574 661 34,900 -40 Level Aus ATC (RADAR)
Sun 10:00:25 PM -26.0130 119.2931 17° North 475 547 34,800 -118 Descending Aus ATC (RADAR)
Sun 10:00:50 PM -25.9648 119.3151 22° Northeast 453 521 34,800 98 Level Aus ATC (RADAR)
Sun 10:01:26 PM -25.8965 119.3442 21° North 453 521 34,900  Climbing Aus ATC (RADAR)
Sun 10:02:05 PM -25.8186 119.3774 21° North 452 520 34,800  Descending Aus ATC (RADAR)
Sun 10:02:39 PM -25.7514 119.4043 20° North 446 513 34,900 87 Climbing Aus ATC (RADAR)
Sun 10:03:14 PM -25.6846 119.4307 20° North 441 507 34,900  Level Aus ATC (RADAR)
Sun 10:03:49 PM -25.6166 119.4592 21° North 444 511 34,900 -80 Level Aus ATC (RADAR)
Sun 10:04:29 PM -25.5383 119.4923 21° North 450 518 34,800 -57 Descending Aus ATC (RADAR)
Sun 10:05:34 PM -25.4104 119.5455 21° North 452 520 34,800  Level Aus ATC (RADAR)
Sun 10:05:54 PM -25.3710 119.5622 21° North 453 521 34,800  Level Aus ATC (RADAR)
Sun 10:06:34 PM -25.2947 119.5926 20° North 444 511 34,800  Level Aus ATC (RADAR)
Sun 10:07:19 PM -25.2057 119.6314 22° Northeast 452 520 34,800  Level Aus ATC (RADAR)
Sun 10:07:54 PM -25.1383 119.6591 20° North 448 516 34,800  Level Aus ATC (RADAR)
Sun 10:08:28 PM -25.0724 119.6854 20° North 439 505 34,800  Level Aus ATC (RADAR)
Sun 10:09:03 PM -25.0055 119.7130 21° North 439 505 34,800  Level Aus ATC (RADAR)
Sun 10:09:38 PM -24.9372 119.7418 21° North 445 512 34,800  Level Aus ATC (RADAR)
Sun 10:10:53 PM -24.7931 119.8008 20° North 441 507 34,800  Level Aus ATC (RADAR)
Sun 10:11:19 PM -24.7460 119.8197 20° North 437 503 34,800  Level Aus ATC (RADAR)
Sun 10:11:58 PM -24.6686 119.8518 21° North 442 509 34,800  Level Aus ATC (RADAR)
Sun 10:12:33 PM -24.6001 119.8804 21° North 447 514 34,800  Level Aus ATC (RADAR)
Sun 10:13:13 PM -24.5238 119.9115 20° North 442 509 34,800  Level Aus ATC (RADAR)
Sun 10:13:53 PM -24.4480 119.9418 20° North 437 503 34,800  Level Aus ATC (RADAR)
Sun 10:14:23 PM -24.3902 119.9657 21° North 439 505 34,800  Level Aus ATC (RADAR)
Sun 10:15:23 PM -24.2742 120.0134 21° North 444 511 34,800  Level Aus ATC (RADAR)
Sun 10:15:48 PM -24.2278 120.0322 20° North 436 502 34,800  Level Aus ATC (RADAR)
Sun 10:16:13 PM -24.1788 120.0521 20° North 442 509 34,800  Level Aus ATC (RADAR)
Sun 10:16:50 PM -24.1126 120.0789 20° North 437 503 34,800  Level Aus ATC (RADAR)
Sun 10:17:38 PM -24.0170 120.1181 21° North 438 504 34,800  Level Aus ATC (RADAR)
Sun 10:18:13 PM -23.9509 120.1450 20° North 436 502 34,800  Level Aus ATC (RADAR)
Sun 10:18:58 PM -23.8625 120.1805 20° North 446 513 34,800  Level Aus ATC (RADAR)
Sun 10:19:28 PM -23.8047 120.2041 20° North 444 511 34,800  Level Aus ATC (RADAR)
Sun 10:20:23 PM -23.7018 120.2467 21° North 426 490 34,800  Level Aus ATC (RADAR)
Sun 10:21:03 PM -23.6221 120.2784 20° North 425 489 34,800  Level Aus ATC (RADAR)
Sun 10:21:18 PM -23.5890 120.2907 19° North 452 520 34,800  Level Aus ATC (RADAR)
Sun 10:21:53 PM -23.5241 120.3176 21° North 441 507 34,800  Level Aus ATC (RADAR)
Sun 10:22:37 PM -23.4344 120.3530 20° North 452 520 34,800  Level Aus ATC (RADAR)
Sun 10:23:18 PM -23.3596 120.3840 21° North 441 507 34,800  Level Aus ATC (RADAR)
Sun 10:24:07 PM -23.2611 120.4229 20° North 449 517 34,800  Level Aus ATC (RADAR)
Sun 10:24:23 PM -23.2307 120.4346 20° North 454 522 34,800  Level Aus ATC (RADAR)
Sun 10:24:58 PM -23.1646 120.4616 21° North 442 509 34,800  Level Aus ATC (RADAR)
Sun 10:26:07 PM -23.0303 120.5159 20° North 441 507 34,800  Level Aus ATC (RADAR)
Sun 10:26:32 PM -22.9822 120.5353 20° North 442 509 34,800  Level Aus ATC (RADAR)
Sun 10:27:07 PM -22.9137 120.5622 20° North 444 511 34,800  Level Aus ATC (RADAR)
Sun 10:27:41 PM -22.8460 120.5892 20° North 443 510 34,800  Level Aus ATC (RADAR)
Sun 10:28:17 PM -22.7777 120.6162 20° North 445 512 34,800  Level Aus ATC (RADAR)
Sun 10:29:06 PM -22.6818 120.6547 20° North 441 507 34,800  Level Aus ATC (RADAR)
Sun 10:29:31 PM -22.6334 120.6741 20° North 442 509 34,800  Level Aus ATC (RADAR)
Sun 10:30:07 PM -22.5653 120.7007 20° North 443 510 34,800  Level Aus ATC (RADAR)
Sun 10:30:56 PM -22.4690 120.7389 20° North 440 506 34,800  Level Aus ATC (RADAR)
Sun 10:31:21 PM -22.4210 120.7579 20° North 441 507 34,800  Level Aus ATC (RADAR)
Sun 10:31:56 PM -22.3538 120.7847 20° North 440 506 34,800 600 Level Aus ATC (RADAR)
Sun 10:32:41 PM -22.2639 120.8107 15° North 429 494 35,600 900 Climbing Aus ATC (RADAR)
Sun 10:33:16 PM -22.1917 120.8100 359° North 419 482 36,000 686 Climbing Aus ATC (RADAR)
Sun 10:33:51 PM -22.1166 120.8110 North 440 506 36,400 600 Climbing Aus ATC (RADAR)
Sun 10:34:26 PM -22.0442 120.8072 357° North 434 499 36,700 257 Climbing Aus ATC (RADAR)
Sun 10:35:01 PM -21.9748 120.7878 345° North 423 487 36,700  Level Aus ATC (RADAR)
Sun 10:36:26 PM -21.7974 120.7520 349° North 441 507 36,700  Level Aus ATC (RADAR)
Sun 10:36:51 PM -21.7460 120.7416 349° North 440 506 36,700  Level Aus ATC (RADAR)
Sun 10:37:26 PM -21.6737 120.7271 349° North 441 507 36,700 -75 Level Aus ATC (RADAR)
Sun 10:38:11 PM -21.5812 120.7091 350° North 440 506 36,600  Descending Aus ATC (RADAR)
Sun 10:38:46 PM -21.5091 120.6948 350° North 440 506 36,700  Climbing Aus ATC (RADAR)
Sun 10:39:30 PM -21.4161 120.6759 349° North 440 506 36,600 -86 Descending Aus ATC (RADAR)
Sun 10:39:56 PM -21.3641 120.6646 349° North 441 507 36,600 66 Level Aus ATC (RADAR)
Sun 10:41:01 PM -21.2298 120.6344 348° North 441 507 36,700 67 Climbing Aus ATC (RADAR)
Sun 10:41:26 PM -21.1770 120.6221 348° North 444 511 36,700  Level Aus ATC (RADAR)
Sun 10:41:50 PM -21.1246 120.6085 346° North 445 512 36,700  Level Aus ATC (RADAR)
Sun 10:42:25 PM -21.0572 120.5787 338° Northwest 430 495 36,700  Level Aus ATC (RADAR)
Sun 10:43:11 PM -20.9542 120.5632 352° North 508 585 36,700 -75 Level Aus ATC (RADAR)
Sun 10:43:45 PM -20.8794 120.5865 16° North 509 586 36,600  Descending Aus ATC (RADAR)
Sun 10:44:20 PM -20.8114 120.6151 21° North 482 555 36,700 171 Climbing Aus ATC (RADAR)
Sun 10:46:00 PM -20.6494 120.7082 28° Northeast  Level Estimated
Sun 10:52:17 PM -19.9486 121.2283 34° Northeast 9,300  Level Aus ATC (Calculated)
Sun 10:53:01 PM -19.8543 121.2948 34° Northeast 9,300  Level Aus ATC (Calculated)
Sun 10:53:55 PM -19.7659 121.3571 34° Northeast 9,300  Level Aus ATC (Calculated)
Sun 10:54:45 PM -19.6831 121.4154 350° North 9,300  Level Aus ATC (Calculated)
Sun 10:55:00 PM -19.6564 121.4103 25° Northeast  Level Estimated
Sun 10:55:17 PM -19.6053 121.4700 North 9,300  Level Aus ATC (Calculated)
Sun 10:56:00 PM -19.5562 121.4756 24° Northeast  Level Estimated
Sun 10:56:10 PM -19.5325 121.5212 33° Northeast 9,300  Level Aus ATC (Calculated)
Sun 10:57:45 PM -19.3274 121.6648 253° West 9,300  Level Aus ATC (Calculated)
Sun 10:58:00 PM -19.3449 121.6059 23° Northeast  Level Estimated
Sun 10:59:00 PM -19.1979 121.7183 21° North  Level Estimated
Sun 10:59:50 PM -19.1051 121.8200 281° West 9,300  Level Aus ATC (Calculated)
Sun 11:00:00 PM -19.0943 121.7611 21° North  Level Estimated
Sun 11:01:00 PM -18.9822 121.8639 19° North  Level Estimated
Sun 11:01:45 PM -18.9383 121.9361 33° Northeast 9,300  Level Aus ATC (Calculated)
Sun 11:02:44 PM -18.8132 122.0230 33° Northeast 9,300  Level Aus ATC (Calculated)
Sun 11:03:34 PM -18.7193 122.0882 360° North 9,300  Level Aus ATC (Calculated)
Sun 11:03:51 PM -18.7193 122.0882 10° North 9,300  Level Aus ATC (Calculated)
Sun 11:05:00 PM -18.5933 122.1116 10° North  Level Estimated
Sun 11:05:44 PM -18.4375 122.2831 252° West 9,300  Level Aus ATC (Calculated)
Sun 11:06:00 PM -18.4838 122.1319 10° North  Level Estimated
Sun 11:07:00 PM -18.2973 122.2684 354° North  Level Estimated
Sun 11:08:00 PM -18.1866 122.2569 354° North  Level Estimated
Sun 11:08:44 PM -18.2533 122.2651 360° North 500  Level Aus ATC (Calculated)
Sun 11:08:54 PM -18.2533 122.2651 354° North 500  Level Aus ATC (Calculated)
Sun 11:10:00 PM -18.1316 122.2519 354° North  Level Estimated
Sun 11:11:00 PM -18.0210 122.2399 354° North  Level Estimated
Sun 11:11:54 PM -18.0691 122.2472 353° North 500  Level Aus ATC (Calculated)
Sun 11:12:00 PM -17.9447 122.2317 354° North  Level Estimated
Sun 11:12:40 PM -18.0077 122.2413 352° North 500  Level Aus ATC (Calculated)
Sun 11:14:00 PM -17.9447 122.2317 352° North  Level Estimated
Sun 11:14:54 PM -17.9496 122.2277 38° Northeast  Level Aus ATC (Calculated)
Sun 11:15:00 PM -17.9447 122.2317 235° Southwest  Level Estimated
Sun 11:16:00 PM -17.9447 122.2317 38° Northeast  Level Estimated
Sun 11:17:00 PM -17.9447 122.2317 235° Southwest  Level Estimated
Sun 11:18:00 PM -17.9447 122.2317 235° Southwest  Level Estimated
Sun 11:19:00 PM -17.9447 122.2317 235° Southwest  Level Estimated
Sun 11:20:00 PM -17.9447 122.2317 235° Southwest  Level Estimated
Sun 11:21:00 PM -17.9447 122.2317 235° Southwest  Level Estimated
Sun 11:22:00 PM -17.9447 122.2317 235° Southwest  Level Estimated
Sun 11:23:00 PM -17.9447 122.2317 235° Southwest  Level Estimated
Sun 11:24:00 PM -17.9447 122.2317 235° Southwest  Level Estimated
Sun 11:25:00 PM -17.9447 122.2317 235° Southwest  Level Estimated
Sun 11:26:00 PM -17.9447 122.2317 235° Southwest  Level Estimated
Sun 11:27:00 PM -17.9447 122.2317 235° Southwest  Level Estimated
Sun 11:28:00 PM -17.9447 122.2317 235° Southwest  Level Estimated
Sun 11:29:00 PM -17.9447 122.2317 235° Southwest  Level Estimated
Sun 11:30:00 PM -17.9447 122.2317 235° Southwest  Level Estimated
Sun 11:31:00 PM -17.9447 122.2317 235° Southwest  Level Estimated

Login

Don't have an account? Register now (free) for customized features, flight alerts, and more!